createdAt,value
2019-05-17T00:00:00.016Z,15.80
2019-05-17T00:01:07.578Z,14.30
2019-05-17T00:02:17.318Z,16.60
2019-05-17T00:03:26.926Z,15.73
2019-05-17T00:04:36.266Z,19.10
2019-05-17T00:05:42.723Z,14.37
2019-05-17T00:06:50.217Z,16.23
2019-05-17T00:07:57.383Z,17.30
2019-05-17T00:09:07.067Z,16.87
2019-05-17T00:10:17.023Z,19.90
2019-05-17T00:11:24.205Z,19.87
2019-05-17T00:12:31.443Z,18.03
2019-05-17T00:13:39.113Z,19.03
2019-05-17T00:14:47.251Z,20.67
2019-05-17T00:15:56.579Z,17.93
2019-05-17T00:17:03.896Z,22.20
2019-05-17T00:18:11.855Z,22.90
2019-05-17T00:19:19.047Z,21.13
2019-05-17T00:20:26.738Z,18.60
2019-05-17T00:21:33.587Z,20.40
2019-05-17T00:22:41.493Z,20.80
2019-05-17T00:23:48.274Z,25.57
2019-05-17T00:24:56.800Z,19.50
2019-05-17T00:26:04.194Z,21.67
2019-05-17T00:27:11.681Z,24.73
2019-05-17T00:28:18.780Z,22.83
2019-05-17T00:29:26.483Z,23.63
2019-05-17T00:30:33.730Z,21.40
2019-05-17T00:31:41.205Z,20.10
2019-05-17T00:32:48.081Z,23.80
2019-05-17T00:33:56.674Z,21.67
2019-05-17T00:35:03.726Z,21.73
2019-05-17T00:36:11.967Z,21.13
2019-05-17T00:37:19.304Z,22.50
2019-05-17T00:38:27.522Z,23.93
2019-05-17T00:39:36.689Z,22.43
2019-05-17T00:40:44.120Z,21.03
2019-05-17T00:41:50.902Z,19.87
2019-05-17T00:42:58.411Z,24.30
2019-05-17T00:44:06.318Z,21.60
2019-05-17T00:45:17.302Z,22.00
2019-05-17T00:46:23.366Z,22.63
2019-05-17T00:47:30.871Z,21.23
2019-05-17T00:48:58.157Z,23.87
2019-05-17T00:50:07.379Z,21.13
2019-05-17T00:51:16.700Z,24.17
2019-05-17T00:52:24.410Z,23.37
2019-05-17T00:53:31.527Z,24.60
2019-05-17T00:54:39.028Z,27.47
2019-05-17T00:55:46.645Z,31.27
2019-05-17T00:56:56.535Z,28.63
2019-05-17T00:58:06.751Z,28.53
2019-05-17T00:59:16.824Z,30.23
2019-05-17T01:00:23.416Z,26.43
2019-05-17T01:01:31.466Z,28.53
2019-05-17T01:02:38.217Z,27.13
2019-05-17T01:03:47.676Z,31.70
2019-05-17T01:04:56.727Z,29.93
2019-05-17T01:06:06.158Z,29.00
2019-05-17T01:07:12.895Z,29.40
2019-05-17T01:08:20.373Z,32.63
2019-05-17T01:09:27.379Z,31.50
2019-05-17T01:10:36.898Z,33.13
2019-05-17T01:11:43.727Z,34.93
2019-05-17T01:12:51.699Z,37.93
2019-05-17T01:13:58.796Z,32.30
2019-05-17T01:15:07.573Z,36.87
2019-05-17T01:16:16.549Z,39.90
2019-05-17T01:17:24.231Z,33.57
2019-05-17T01:18:30.993Z,33.60
2019-05-17T01:19:38.511Z,30.60
2019-05-17T01:20:47.284Z,30.20
2019-05-17T01:21:56.844Z,36.90
2019-05-17T01:23:03.390Z,34.10
2019-05-17T01:24:10.969Z,33.83
2019-05-17T01:25:17.791Z,34.47
2019-05-17T01:26:26.732Z,33.33
2019-05-17T01:27:34.305Z,33.40
2019-05-17T01:28:42.179Z,33.97
2019-05-17T01:29:49.263Z,37.00
2019-05-17T01:30:57.452Z,31.37
2019-05-17T01:32:06.751Z,34.63
2019-05-17T01:33:13.984Z,41.70
2019-05-17T01:34:21.063Z,35.90
2019-05-17T01:35:28.538Z,33.13
2019-05-17T01:36:37.063Z,32.90
2019-05-17T01:37:44.545Z,32.43
2019-05-17T01:38:51.306Z,34.90
2019-05-17T01:39:58.803Z,34.90
2019-05-17T01:41:07.031Z,41.20
2019-05-17T01:42:17.120Z,35.40
2019-05-17T01:43:24.230Z,32.03
2019-05-17T01:44:32.726Z,36.90
2019-05-17T01:45:40.236Z,39.00
2019-05-17T01:46:47.732Z,35.47
2019-05-17T01:47:56.308Z,35.10
2019-05-17T01:49:06.724Z,38.63
2019-05-17T01:50:13.455Z,34.13
2019-05-17T01:51:20.987Z,37.17
2019-05-17T01:52:27.781Z,36.03
2019-05-17T01:53:36.499Z,39.23
2019-05-17T01:54:43.475Z,40.10
2019-05-17T01:55:51.643Z,36.77
2019-05-17T01:56:58.404Z,36.50
2019-05-17T01:58:07.290Z,37.43
2019-05-17T01:59:14.456Z,34.97
2019-05-17T02:00:26.425Z,33.37
2019-05-17T02:01:32.464Z,35.67
2019-05-17T02:02:42.389Z,35.87
2019-05-17T02:03:49.559Z,38.37
2019-05-17T02:04:57.405Z,34.70
2019-05-17T02:06:07.232Z,32.80
2019-05-17T02:07:13.738Z,33.73
2019-05-17T02:08:20.474Z,35.10
2019-05-17T02:09:37.075Z,34.37
2019-05-17T02:10:37.789Z,31.10
2019-05-17T02:11:46.696Z,35.50
2019-05-17T02:12:53.632Z,32.90
2019-05-17T02:14:01.142Z,28.53
2019-05-17T02:15:10.071Z,35.03
2019-05-17T02:16:17.539Z,28.60
2019-05-17T02:17:26.584Z,36.20
2019-05-17T02:18:33.934Z,34.07
2019-05-17T02:19:40.788Z,33.50
2019-05-17T02:20:48.289Z,30.80
2019-05-17T02:21:57.005Z,33.17
2019-05-17T02:23:07.268Z,32.03
2019-05-17T02:24:13.548Z,30.57
2019-05-17T02:25:21.250Z,29.00
2019-05-17T02:26:27.988Z,33.40
2019-05-17T02:27:41.274Z,31.27
2019-05-17T02:28:44.735Z,27.60
2019-05-17T02:29:52.242Z,28.93
2019-05-17T02:31:03.236Z,29.63
2019-05-17T02:32:12.613Z,33.70
2019-05-17T02:33:18.930Z,32.03
2019-05-17T02:34:26.783Z,30.63
2019-05-17T02:35:34.380Z,30.37
2019-05-17T02:36:43.098Z,32.63
2019-05-17T02:37:53.216Z,30.70
2019-05-17T02:38:59.302Z,30.17
2019-05-17T02:40:08.719Z,31.70
2019-05-17T02:41:16.727Z,29.10
2019-05-17T02:42:23.484Z,30.60
2019-05-17T02:43:33.551Z,28.47
2019-05-17T02:44:43.581Z,36.07
2019-05-17T02:45:52.492Z,32.93
2019-05-17T02:46:57.800Z,33.47
2019-05-17T02:48:05.362Z,33.73
2019-05-17T02:49:13.792Z,32.40
2019-05-17T02:50:23.356Z,30.23
2019-05-17T02:51:32.370Z,30.97
2019-05-17T02:52:43.050Z,37.10
2019-05-17T02:53:48.584Z,29.23
2019-05-17T02:54:56.274Z,33.70
2019-05-17T02:56:03.705Z,33.03
2019-05-17T02:57:14.288Z,28.47
2019-05-17T02:58:23.086Z,29.07
2019-05-17T02:59:32.785Z,31.57
2019-05-17T03:00:38.262Z,32.17
2019-05-17T03:01:45.746Z,32.10
2019-05-17T03:02:53.750Z,32.20
2019-05-17T03:04:03.783Z,29.10
2019-05-17T03:05:12.806Z,32.40
2019-05-17T03:06:22.739Z,30.60
2019-05-17T03:07:32.445Z,33.80
2019-05-17T03:08:38.516Z,32.30
2019-05-17T03:09:45.323Z,30.03
2019-05-17T03:10:53.646Z,32.33
2019-05-17T03:12:03.373Z,30.40
2019-05-17T03:13:13.230Z,30.30
2019-05-17T03:14:19.159Z,29.17
2019-05-17T03:15:27.078Z,30.57
2019-05-17T03:16:34.110Z,29.10
2019-05-17T03:17:43.477Z,31.53
2019-05-17T03:18:53.003Z,33.10
2019-05-17T03:20:03.563Z,33.10
2019-05-17T03:21:08.649Z,27.23
2019-05-17T03:22:16.134Z,30.33
2019-05-17T03:23:23.686Z,31.63
2019-05-17T03:24:33.251Z,34.67
2019-05-17T03:25:43.786Z,31.50
2019-05-17T03:26:52.672Z,33.73
2019-05-17T03:27:58.213Z,31.20
2019-05-17T03:29:06.093Z,28.60
2019-05-17T03:30:17.536Z,32.17
2019-05-17T03:31:26.434Z,31.50
2019-05-17T03:32:36.126Z,26.20
2019-05-17T03:33:45.970Z,34.83
2019-05-17T03:34:56.130Z,28.37
2019-05-17T03:36:06.202Z,34.03
2019-05-17T03:37:15.566Z,31.10
2019-05-17T03:38:19.341Z,29.23
2019-05-17T03:39:26.501Z,29.00
2019-05-17T03:41:03.663Z,32.90
2019-05-17T03:41:43.357Z,29.67
2019-05-17T03:42:53.500Z,31.17
2019-05-17T03:44:02.941Z,26.53
2019-05-17T03:45:09.324Z,33.20
2019-05-17T03:46:16.803Z,32.97
2019-05-17T03:47:24.917Z,33.97
2019-05-17T03:48:33.394Z,32.50
2019-05-17T03:49:43.707Z,32.60
2019-05-17T03:50:52.860Z,29.83
2019-05-17T03:52:02.494Z,36.13
2019-05-17T03:53:08.632Z,30.87
2019-05-17T03:54:16.514Z,27.90
2019-05-17T03:55:23.642Z,30.70
2019-05-17T03:56:33.036Z,29.30
2019-05-17T03:57:44.065Z,29.73
2019-05-17T03:58:53.127Z,31.60
2019-05-17T03:59:59.210Z,34.27
2019-05-17T04:01:07.131Z,28.10
2019-05-17T04:02:13.979Z,28.03
2019-05-17T04:03:22.899Z,32.10
2019-05-17T04:04:32.905Z,37.37
2019-05-17T04:05:42.632Z,35.03
2019-05-17T04:06:48.464Z,35.43
2019-05-17T04:07:56.007Z,32.27
2019-05-17T04:09:04.573Z,37.57
2019-05-17T04:10:15.258Z,34.07
2019-05-17T04:11:31.000Z,30.40
2019-05-17T04:12:32.754Z,32.03
2019-05-17T04:13:43.003Z,33.00
2019-05-17T04:14:53.370Z,33.53
2019-05-17T04:15:59.341Z,31.23
2019-05-17T04:17:06.873Z,32.67
2019-05-17T04:18:13.723Z,39.17
2019-05-17T04:19:22.966Z,32.57
2019-05-17T04:20:33.120Z,37.03
2019-05-17T04:21:42.693Z,33.60
2019-05-17T04:22:48.549Z,35.40
2019-05-17T04:23:56.082Z,30.80
2019-05-17T04:25:03.368Z,34.37
2019-05-17T04:26:13.571Z,33.70
2019-05-17T04:27:22.798Z,31.50
2019-05-17T04:28:29.132Z,35.53
2019-05-17T04:29:36.231Z,29.53
2019-05-17T04:30:44.612Z,35.03
2019-05-17T04:31:54.240Z,35.37
2019-05-17T04:33:03.596Z,33.83
2019-05-17T04:34:09.051Z,34.03
2019-05-17T04:35:16.654Z,34.63
2019-05-17T04:36:23.491Z,30.10
2019-05-17T04:37:33.602Z,35.60
2019-05-17T04:38:39.650Z,38.10
2019-05-17T04:39:47.548Z,29.83
2019-05-17T04:40:54.346Z,35.93
2019-05-17T04:42:03.696Z,35.40
2019-05-17T04:43:13.582Z,37.40
2019-05-17T04:44:22.966Z,31.60
2019-05-17T04:45:29.601Z,34.20
2019-05-17T04:46:37.150Z,30.67
2019-05-17T04:47:44.806Z,35.80
2019-05-17T04:48:53.609Z,35.33
2019-05-17T04:50:04.031Z,38.57
2019-05-17T04:51:13.181Z,34.53
2019-05-17T04:52:22.849Z,29.83
2019-05-17T04:53:32.626Z,29.43
2019-05-17T04:54:38.720Z,35.03
2019-05-17T04:55:47.206Z,29.30
2019-05-17T04:56:55.772Z,31.90
2019-05-17T04:58:04.430Z,29.67
2019-05-17T04:59:13.883Z,29.03
2019-05-17T05:00:21.922Z,27.77
2019-05-17T05:01:32.750Z,30.43
2019-05-17T05:02:39.398Z,33.00
2019-05-17T05:03:46.606Z,30.30
2019-05-17T05:04:54.114Z,28.23
2019-05-17T05:06:03.019Z,34.63
2019-05-17T05:07:13.592Z,34.70
2019-05-17T05:08:22.251Z,37.20
2019-05-17T05:09:28.744Z,30.80
2019-05-17T05:10:38.508Z,29.40
2019-05-17T05:11:59.565Z,29.03
2019-05-17T05:12:53.953Z,29.83
2019-05-17T05:14:02.722Z,26.50
2019-05-17T05:15:12.200Z,26.50
2019-05-17T05:16:23.447Z,28.80
2019-05-17T05:17:32.694Z,35.63
2019-05-17T05:18:41.937Z,37.70
2019-05-17T05:19:48.266Z,29.83
2019-05-17T05:20:55.854Z,35.47
2019-05-17T05:22:04.603Z,33.47
2019-05-17T05:23:12.907Z,32.00
2019-05-17T05:24:22.108Z,25.77
2019-05-17T05:25:29.607Z,30.37
2019-05-17T05:26:36.379Z,28.80
2019-05-17T05:27:43.898Z,27.90
2019-05-17T05:28:52.915Z,31.43
2019-05-17T05:30:02.874Z,29.47
2019-05-17T05:31:08.882Z,31.50
2019-05-17T05:32:16.446Z,26.00
2019-05-17T05:33:23.243Z,27.90
2019-05-17T05:34:32.227Z,25.13
2019-05-17T05:35:42.205Z,28.17
2019-05-17T05:36:49.017Z,30.17
2019-05-17T05:37:55.790Z,28.80
2019-05-17T05:39:03.371Z,28.00
2019-05-17T05:40:12.613Z,27.13
2019-05-17T05:41:22.424Z,27.43
2019-05-17T05:42:28.466Z,25.30
2019-05-17T05:43:36.283Z,28.83
2019-05-17T05:44:43.380Z,26.80
2019-05-17T05:45:50.877Z,25.80
2019-05-17T05:46:57.641Z,23.40
2019-05-17T05:48:05.224Z,23.97
2019-05-17T05:49:12.734Z,26.53
2019-05-17T05:50:21.845Z,27.83
2019-05-17T05:51:28.752Z,30.53
2019-05-17T05:52:36.620Z,24.10
2019-05-17T05:53:43.372Z,23.00
2019-05-17T05:54:52.070Z,21.93
2019-05-17T05:55:59.055Z,28.83
2019-05-17T05:57:06.968Z,25.83
2019-05-17T05:58:13.993Z,20.80
2019-05-17T05:59:22.548Z,24.23
2019-05-17T06:00:33.042Z,27.40
2019-05-17T06:01:42.061Z,22.53
2019-05-17T06:02:48.484Z,24.23
2019-05-17T06:03:56.407Z,26.93
2019-05-17T06:05:03.495Z,25.60
2019-05-17T06:06:12.351Z,25.00
2019-05-17T06:07:21.685Z,21.30
2019-05-17T06:08:28.894Z,23.00
2019-05-17T06:09:35.678Z,23.33
2019-05-17T06:10:43.236Z,21.47
2019-05-17T06:11:51.906Z,21.90
2019-05-17T06:13:02.570Z,24.73
2019-05-17T06:14:08.196Z,19.10
2019-05-17T06:15:16.494Z,18.47
2019-05-17T06:16:23.261Z,21.17
2019-05-17T06:17:31.763Z,20.47
2019-05-17T06:18:39.487Z,18.90
2019-05-17T06:19:47.389Z,20.60
2019-05-17T06:20:54.876Z,20.73
2019-05-17T06:22:02.896Z,19.10
2019-05-17T06:23:12.360Z,20.50
2019-05-17T06:24:19.696Z,22.23
2019-05-17T06:25:26.975Z,21.63
2019-05-17T06:26:34.523Z,22.20
2019-05-17T06:27:41.786Z,18.77
2019-05-17T06:28:51.793Z,19.80
2019-05-17T06:29:58.250Z,18.30
2019-05-17T06:31:06.151Z,17.10
2019-05-17T06:32:13.109Z,17.70
2019-05-17T06:33:30.434Z,16.97
2019-05-17T06:34:32.772Z,16.17
2019-05-17T06:35:42.313Z,18.97
2019-05-17T06:36:49.420Z,17.07
2019-05-17T06:37:57.322Z,19.67
2019-05-17T06:39:06.594Z,17.40
2019-05-17T06:40:14.502Z,20.23
2019-05-17T06:41:21.629Z,21.23
2019-05-17T06:42:38.260Z,17.57
2019-05-17T06:43:38.554Z,17.10
2019-05-17T06:44:46.478Z,18.47
2019-05-17T06:45:53.267Z,16.67
2019-05-17T06:47:02.654Z,18.23
2019-05-17T06:48:11.738Z,19.97
2019-05-17T06:49:19.531Z,17.50
2019-05-17T06:50:26.656Z,18.60
2019-05-17T06:51:34.181Z,21.00
2019-05-17T06:52:43.425Z,19.30
2019-05-17T06:53:52.222Z,18.20
2019-05-17T06:54:58.961Z,18.27
2019-05-17T06:56:06.660Z,18.10
2019-05-17T06:57:13.427Z,17.37
2019-05-17T06:58:22.271Z,21.40
2019-05-17T06:59:29.297Z,18.90
2019-05-17T07:00:37.224Z,21.03
2019-05-17T07:01:43.985Z,20.50
2019-05-17T07:02:51.486Z,19.53
2019-05-17T07:04:00.290Z,16.70
2019-05-17T07:05:10.867Z,19.80
2019-05-17T07:06:21.546Z,19.40
2019-05-17T07:07:30.436Z,17.17
2019-05-17T07:08:40.100Z,18.30
2019-05-17T07:09:49.678Z,19.97
2019-05-17T07:10:59.576Z,18.50
2019-05-17T07:12:06.531Z,18.97
2019-05-17T07:13:13.720Z,16.77
2019-05-17T07:14:21.512Z,19.57
2019-05-17T07:15:43.298Z,19.73
2019-05-17T07:16:39.693Z,21.10
2019-05-17T07:17:47.452Z,20.33
2019-05-17T07:18:55.249Z,21.00
2019-05-17T07:20:02.951Z,25.20
2019-05-17T07:21:10.945Z,19.10
2019-05-17T07:22:18.041Z,19.60
2019-05-17T07:23:25.609Z,18.33
2019-05-17T07:24:32.362Z,18.80
2019-05-17T07:25:40.064Z,20.10
2019-05-17T07:26:46.802Z,16.20
2019-05-17T07:27:54.741Z,22.30
2019-05-17T07:29:01.514Z,17.37
2019-05-17T07:30:10.183Z,18.97
2019-05-17T07:31:19.642Z,16.60
2019-05-17T07:32:26.779Z,18.30
2019-05-17T07:33:33.542Z,20.87
2019-05-17T07:34:41.414Z,14.93
2019-05-17T07:35:50.136Z,15.43
2019-05-17T07:36:59.651Z,13.93
2019-05-17T07:38:06.201Z,12.77
2019-05-17T07:39:13.702Z,13.13
2019-05-17T07:40:20.856Z,14.90
2019-05-17T07:41:29.857Z,15.23
2019-05-17T07:42:39.465Z,13.47
2019-05-17T07:43:46.289Z,14.23
2019-05-17T07:44:53.403Z,11.83
2019-05-17T07:46:01.205Z,12.00
2019-05-17T07:47:09.706Z,11.60
2019-05-17T07:48:19.778Z,11.53
2019-05-17T07:49:26.101Z,9.40
2019-05-17T07:50:33.979Z,15.03
2019-05-17T07:51:40.717Z,12.83
2019-05-17T07:52:49.970Z,11.37
2019-05-17T07:53:56.688Z,11.97
2019-05-17T07:55:04.228Z,11.47
2019-05-17T07:56:11.781Z,14.63
2019-05-17T07:57:20.731Z,11.53
2019-05-17T07:58:29.714Z,11.77
2019-05-17T07:59:39.597Z,11.83
2019-05-17T08:00:45.661Z,14.10
2019-05-17T08:01:53.291Z,12.13
2019-05-17T08:03:00.802Z,11.20
2019-05-17T08:04:10.004Z,12.70
2019-05-17T08:05:17.498Z,12.27
2019-05-17T08:06:25.336Z,15.00
2019-05-17T08:07:32.448Z,11.20
2019-05-17T08:08:40.945Z,11.60
2019-05-17T08:09:50.469Z,12.90
2019-05-17T08:11:00.133Z,11.87
2019-05-17T08:12:05.769Z,11.97
2019-05-17T08:13:25.481Z,13.07
2019-05-17T08:14:29.535Z,13.67
2019-05-17T08:15:31.628Z,11.13
2019-05-17T08:16:39.492Z,11.60
2019-05-17T08:17:50.047Z,11.37
2019-05-17T08:18:56.854Z,10.53
2019-05-17T08:20:04.711Z,11.70
2019-05-17T08:21:11.860Z,11.50
2019-05-17T08:22:20.230Z,16.63
2019-05-17T08:23:30.204Z,11.83
2019-05-17T08:24:36.799Z,11.97
2019-05-17T08:25:52.707Z,10.93
2019-05-17T08:26:53.187Z,12.47
2019-05-17T08:28:00.264Z,9.73
2019-05-17T08:29:09.859Z,12.30
2019-05-17T08:30:17.177Z,10.07
2019-05-17T08:31:24.673Z,13.70
2019-05-17T08:32:31.859Z,11.33
2019-05-17T08:33:40.648Z,13.63
2019-05-17T08:34:49.546Z,13.20
2019-05-17T08:35:59.624Z,14.47
2019-05-17T08:37:06.386Z,12.20
2019-05-17T08:38:13.889Z,12.97
2019-05-17T08:39:20.641Z,14.47
2019-05-17T08:40:30.477Z,11.73
2019-05-17T08:41:37.087Z,12.50
2019-05-17T08:42:44.614Z,11.37
2019-05-17T08:43:51.761Z,9.23
2019-05-17T08:45:00.285Z,11.43
2019-05-17T08:46:10.339Z,14.97
2019-05-17T08:47:16.853Z,13.27
2019-05-17T08:48:23.802Z,12.83
2019-05-17T08:49:31.299Z,12.60
2019-05-17T08:50:40.257Z,13.97
2019-05-17T08:51:49.944Z,12.00
2019-05-17T08:52:56.243Z,13.43
2019-05-17T08:54:03.887Z,10.83
2019-05-17T08:55:10.897Z,12.67
2019-05-17T08:56:20.552Z,11.77
2019-05-17T08:57:26.888Z,10.20
2019-05-17T08:58:34.746Z,13.77
2019-05-17T08:59:41.552Z,11.50
2019-05-17T09:00:50.508Z,12.13
2019-05-17T09:01:59.954Z,13.70
2019-05-17T09:03:10.354Z,12.70
2019-05-17T09:04:16.589Z,13.93
2019-05-17T09:05:24.569Z,13.97
2019-05-17T09:06:31.352Z,14.60
2019-05-17T09:07:40.261Z,13.57
2019-05-17T09:08:49.812Z,15.70
2019-05-17T09:09:57.384Z,14.80
2019-05-17T09:11:04.196Z,13.57
2019-05-17T09:12:11.849Z,13.73
2019-05-17T09:13:19.550Z,14.60
2019-05-17T09:14:29.338Z,15.20
2019-05-17T09:15:35.801Z,17.00
2019-05-17T09:16:43.354Z,17.93
2019-05-17T09:17:50.127Z,15.27
2019-05-17T09:18:57.625Z,17.43
2019-05-17T09:20:04.985Z,16.40
2019-05-17T09:21:12.499Z,16.17
2019-05-17T09:22:19.830Z,14.07
2019-05-17T09:23:27.577Z,14.60
2019-05-17T09:24:34.332Z,12.73
2019-05-17T09:25:42.211Z,12.23
2019-05-17T09:26:49.336Z,16.67
2019-05-17T09:27:57.413Z,12.80
2019-05-17T09:29:04.180Z,15.23
2019-05-17T09:30:13.518Z,14.97
2019-05-17T09:31:20.582Z,17.80
2019-05-17T09:32:29.620Z,15.00
2019-05-17T09:33:36.674Z,12.63
2019-05-17T09:34:44.273Z,15.33
2019-05-17T09:35:51.046Z,15.40
2019-05-17T09:37:00.312Z,16.10
2019-05-17T09:38:09.850Z,15.40
2019-05-17T09:39:16.691Z,12.07
2019-05-17T09:40:23.457Z,13.40
2019-05-17T09:41:31.402Z,14.90
2019-05-17T09:42:40.831Z,11.17
2019-05-17T09:43:49.664Z,10.10
2019-05-17T09:44:56.355Z,11.73
2019-05-17T09:46:03.923Z,12.87
2019-05-17T09:47:10.685Z,12.20
2019-05-17T09:48:19.647Z,11.43
2019-05-17T09:49:26.832Z,8.50
2019-05-17T09:50:34.349Z,18.57
2019-05-17T09:51:41.146Z,10.67
2019-05-17T09:52:49.439Z,11.43
2019-05-17T09:53:56.440Z,8.20
2019-05-17T09:55:04.281Z,9.67
2019-05-17T09:56:11.229Z,6.80
2019-05-17T09:57:20.460Z,8.13
2019-05-17T09:58:29.800Z,11.00
2019-05-17T09:59:36.754Z,9.63
2019-05-17T10:00:43.965Z,8.77
2019-05-17T10:01:52.170Z,7.20
2019-05-17T10:03:00.050Z,8.17
2019-05-17T10:04:07.726Z,10.20
2019-05-17T10:05:14.587Z,7.90
2019-05-17T10:06:22.084Z,11.60
2019-05-17T10:07:29.867Z,6.80
2019-05-17T10:08:39.423Z,8.23
2019-05-17T10:09:47.150Z,8.20
2019-05-17T10:11:04.981Z,10.83
2019-05-17T10:12:03.572Z,6.90
2019-05-17T10:13:11.109Z,7.50
2019-05-17T10:14:25.804Z,7.50
2019-05-17T10:15:29.956Z,6.80
2019-05-17T10:16:36.091Z,8.73
2019-05-17T10:17:44.415Z,8.53
2019-05-17T10:18:51.224Z,9.00
2019-05-17T10:19:59.929Z,8.63
2019-05-17T10:21:07.156Z,7.20
2019-05-17T10:22:14.819Z,8.30
2019-05-17T10:23:21.612Z,12.70
2019-05-17T10:24:38.078Z,7.17
2019-05-17T10:25:40.074Z,9.43
2019-05-17T10:26:49.891Z,14.43
2019-05-17T10:27:56.802Z,8.27
2019-05-17T10:29:04.803Z,8.70
2019-05-17T10:30:12.315Z,8.10
2019-05-17T10:31:19.913Z,10.20
2019-05-17T10:32:27.547Z,10.67
2019-05-17T10:33:35.254Z,9.43
2019-05-17T10:34:42.229Z,9.83
2019-05-17T10:35:50.116Z,10.20
2019-05-17T10:36:56.897Z,7.70
2019-05-17T10:38:04.786Z,8.87
2019-05-17T10:39:11.723Z,8.07
2019-05-17T10:40:20.973Z,10.80
2019-05-17T10:41:29.970Z,11.87
2019-05-17T10:42:39.349Z,8.53
2019-05-17T10:43:45.498Z,8.30
2019-05-17T10:44:54.732Z,10.77
2019-05-17T10:46:02.154Z,8.73
2019-05-17T10:47:10.226Z,11.50
2019-05-17T10:48:17.521Z,11.80
2019-05-17T10:49:25.543Z,8.90
2019-05-17T10:50:32.717Z,11.93
2019-05-17T10:51:40.404Z,10.70
2019-05-17T10:52:47.629Z,11.07
2019-05-17T10:53:55.126Z,10.50
2019-05-17T10:55:01.998Z,7.83
2019-05-17T10:56:09.960Z,12.03
2019-05-17T10:57:19.449Z,8.90
2019-05-17T10:58:27.078Z,9.47
2019-05-17T10:59:33.911Z,10.00
2019-05-17T11:00:41.758Z,8.67
2019-05-17T11:01:50.155Z,9.13
2019-05-17T11:03:00.479Z,11.50
2019-05-17T11:04:06.714Z,10.87
2019-05-17T11:05:14.835Z,8.07
2019-05-17T11:06:21.990Z,12.63
2019-05-17T11:07:30.117Z,9.50
2019-05-17T11:08:37.040Z,8.90
2019-05-17T11:09:44.569Z,7.60
2019-05-17T11:10:51.317Z,7.70
2019-05-17T11:11:58.926Z,13.47
2019-05-17T11:13:06.022Z,10.60
2019-05-17T11:14:13.816Z,11.00
2019-05-17T11:15:20.598Z,11.23
2019-05-17T11:16:28.479Z,8.17
2019-05-17T11:17:35.430Z,12.43
2019-05-17T11:18:43.066Z,11.10
2019-05-17T11:19:49.830Z,10.63
2019-05-17T11:20:57.715Z,9.03
2019-05-17T11:22:05.153Z,10.20
2019-05-17T11:23:12.677Z,10.80
2019-05-17T11:24:19.523Z,9.50
2019-05-17T11:25:27.094Z,10.10
2019-05-17T11:26:34.852Z,10.50
2019-05-17T11:27:42.865Z,9.90
2019-05-17T11:28:49.632Z,7.50
2019-05-17T11:29:57.206Z,11.13
2019-05-17T11:31:04.028Z,10.97
2019-05-17T11:32:11.528Z,12.73
2019-05-17T11:33:18.852Z,11.70
2019-05-17T11:34:26.353Z,10.13
2019-05-17T11:35:33.497Z,11.70
2019-05-17T11:36:41.001Z,12.20
2019-05-17T11:37:47.745Z,12.83
2019-05-17T11:38:55.451Z,15.30
2019-05-17T11:40:02.234Z,13.10
2019-05-17T11:41:20.558Z,11.57
2019-05-17T11:42:18.754Z,10.20
2019-05-17T11:43:26.923Z,11.17
2019-05-17T11:44:33.925Z,11.20
2019-05-17T11:45:41.442Z,12.17
2019-05-17T11:46:48.198Z,13.00
2019-05-17T11:47:55.768Z,12.07
2019-05-17T11:49:02.526Z,12.03
2019-05-17T11:50:10.894Z,11.80
2019-05-17T11:51:19.061Z,12.57
2019-05-17T11:52:26.949Z,11.37
2019-05-17T11:53:33.708Z,10.50
2019-05-17T11:54:41.231Z,14.50
2019-05-17T11:55:48.003Z,31.00
2019-05-17T11:56:55.893Z,13.40
2019-05-17T11:58:02.654Z,10.73
2019-05-17T11:59:10.345Z,17.97
2019-05-17T12:00:19.883Z,11.50
2019-05-17T12:01:27.555Z,12.73
2019-05-17T12:02:34.821Z,11.23
2019-05-17T12:03:43.185Z,17.73
2019-05-17T12:04:49.946Z,10.97
2019-05-17T12:05:57.841Z,16.33
2019-05-17T12:07:05.131Z,13.43
2019-05-17T12:08:13.478Z,11.93
2019-05-17T12:09:20.611Z,12.23
2019-05-17T12:10:28.172Z,15.47
2019-05-17T12:11:35.247Z,14.53
2019-05-17T12:12:42.974Z,12.10
2019-05-17T12:13:49.869Z,10.40
2019-05-17T12:14:57.352Z,11.07
2019-05-17T12:16:04.717Z,12.53
2019-05-17T12:17:12.259Z,10.80
2019-05-17T12:18:19.445Z,10.90
2019-05-17T12:19:27.282Z,11.50
2019-05-17T12:20:34.080Z,10.20
2019-05-17T12:21:41.895Z,10.03
2019-05-17T12:22:48.777Z,9.90
2019-05-17T12:23:56.557Z,11.20
2019-05-17T12:25:03.302Z,9.20
2019-05-17T12:26:10.847Z,11.90
2019-05-17T12:27:17.999Z,12.17
2019-05-17T12:28:25.857Z,13.60
2019-05-17T12:29:33.325Z,12.60
2019-05-17T12:30:40.833Z,12.73
2019-05-17T12:31:48.024Z,8.93
2019-05-17T12:32:55.908Z,11.43
2019-05-17T12:34:03.071Z,11.70
2019-05-17T12:35:11.075Z,9.27
2019-05-17T12:36:17.837Z,12.80
2019-05-17T12:37:25.358Z,12.83
2019-05-17T12:38:32.750Z,10.90
2019-05-17T12:39:40.288Z,11.57
2019-05-17T12:40:47.044Z,21.60
2019-05-17T12:41:54.703Z,14.57
2019-05-17T12:43:01.550Z,14.33
2019-05-17T12:44:09.125Z,10.20
2019-05-17T12:45:16.691Z,14.30
2019-05-17T12:46:24.191Z,10.20
2019-05-17T12:47:30.998Z,11.60
2019-05-17T12:48:38.588Z,11.90
2019-05-17T12:49:45.352Z,10.57
2019-05-17T12:50:53.104Z,9.80
2019-05-17T12:51:59.857Z,12.70
2019-05-17T12:53:08.235Z,12.13
2019-05-17T12:54:15.312Z,12.83
2019-05-17T12:55:22.884Z,11.63
2019-05-17T12:56:29.980Z,12.17
2019-05-17T12:57:37.522Z,12.00
2019-05-17T12:58:44.622Z,13.23
2019-05-17T12:59:52.137Z,12.03
2019-05-17T13:00:58.929Z,14.20
2019-05-17T13:02:06.637Z,13.30
2019-05-17T13:03:13.425Z,12.47
2019-05-17T13:04:41.876Z,13.30
2019-05-17T13:05:49.340Z,12.57
2019-05-17T13:06:57.772Z,14.43
2019-05-17T13:08:04.836Z,10.97
2019-05-17T13:09:12.437Z,13.40
2019-05-17T13:10:20.011Z,17.37
2019-05-17T13:11:27.932Z,11.53
2019-05-17T13:12:35.699Z,11.33
2019-05-17T13:13:43.200Z,12.97
2019-05-17T13:14:49.966Z,10.20
2019-05-17T13:15:57.899Z,12.67
2019-05-17T13:17:04.880Z,13.33
2019-05-17T13:18:13.615Z,14.90
2019-05-17T13:19:20.385Z,14.40
2019-05-17T13:20:28.328Z,14.60
2019-05-17T13:21:35.209Z,11.43
2019-05-17T13:22:42.928Z,17.40
2019-05-17T13:23:52.116Z,10.03
2019-05-17T13:24:59.611Z,11.43
2019-05-17T13:26:06.478Z,12.10
2019-05-17T13:27:14.448Z,12.77
2019-05-17T13:28:21.577Z,14.13
2019-05-17T13:29:29.387Z,12.60
2019-05-17T13:30:36.215Z,15.27
2019-05-17T13:31:43.755Z,11.43
2019-05-17T13:32:50.889Z,13.53
2019-05-17T13:33:58.705Z,12.23
2019-05-17T13:35:06.173Z,13.50
2019-05-17T13:36:13.861Z,13.27
2019-05-17T13:37:21.316Z,13.47
2019-05-17T13:38:29.139Z,17.93
2019-05-17T13:39:36.329Z,15.00
2019-05-17T13:40:43.842Z,14.60
2019-05-17T13:41:50.979Z,14.33
2019-05-17T13:42:58.818Z,9.80
2019-05-17T13:44:06.235Z,14.67
2019-05-17T13:45:14.362Z,13.67
2019-05-17T13:46:32.797Z,10.90
2019-05-17T13:47:31.096Z,15.73
2019-05-17T13:48:39.661Z,13.87
2019-05-17T13:49:47.741Z,16.33
2019-05-17T13:50:54.603Z,15.00
2019-05-17T13:52:02.632Z,15.07
2019-05-17T13:53:09.484Z,13.50
2019-05-17T13:54:17.301Z,11.37
2019-05-17T13:55:24.430Z,17.80
2019-05-17T13:56:32.231Z,13.07
2019-05-17T13:57:39.064Z,13.93
2019-05-17T13:58:46.627Z,19.30
2019-05-17T13:59:53.883Z,14.97
2019-05-17T14:01:01.739Z,22.77
2019-05-17T14:02:09.409Z,11.60
2019-05-17T14:03:17.277Z,13.90
2019-05-17T14:04:24.142Z,13.60
2019-05-17T14:05:31.964Z,14.13
2019-05-17T14:06:38.998Z,16.73
2019-05-17T14:07:47.005Z,16.00
2019-05-17T14:08:53.800Z,14.37
2019-05-17T14:10:01.818Z,20.60
2019-05-17T14:11:08.895Z,15.73
2019-05-17T14:12:16.757Z,18.53
2019-05-17T14:13:24.020Z,16.50
2019-05-17T14:14:32.030Z,16.50
2019-05-17T14:15:38.898Z,15.50
2019-05-17T14:16:47.151Z,16.90
2019-05-17T14:17:54.179Z,17.80
2019-05-17T14:19:02.522Z,15.77
2019-05-17T14:20:10.487Z,14.07
2019-05-17T14:21:18.311Z,13.47
2019-05-17T14:22:25.331Z,16.30
2019-05-17T14:23:33.374Z,18.13
2019-05-17T14:24:40.349Z,16.13
2019-05-17T14:25:48.039Z,17.63
2019-05-17T14:26:55.085Z,13.83
2019-05-17T14:28:02.900Z,15.30
2019-05-17T14:29:09.730Z,13.50
2019-05-17T14:30:17.807Z,18.03
2019-05-17T14:31:24.960Z,12.70
2019-05-17T14:32:32.506Z,15.97
2019-05-17T14:33:39.296Z,14.73
2019-05-17T14:34:46.799Z,15.27
2019-05-17T14:35:53.609Z,14.83
2019-05-17T14:37:01.477Z,11.90